Time;durP1;ratioP1;P1;durP2;ratioP2;P2;SDS_P1;SDS_P2;PMS_P1;PMS_P2;Temp;Humidity;BMP_temperature;BMP_pressure;BME280_temperature;BME280_humidity;BME280_pressure;Samples;Min_cycle;Max_cycle;Signal;HPM_P1;HPM_P2
2023/04/05 00:01:27;;;;;;;5.40;3.30;;;5.10;99.90;;;;;;5043330;28;20073;-74
2023/04/05 00:03:54;;;;;;;7.75;3.83;;;5.00;99.90;;;;;;5056118;28;20018;-73
2023/04/05 00:06:27;;;;;;;7.63;3.63;;;5.00;99.90;;;;;;5075452;28;20028;-73
2023/04/05 00:08:54;;;;;;;7.80;3.42;;;5.00;99.90;;;;;;5080017;28;20501;-74
2023/04/05 00:11:24;;;;;;;8.52;3.67;;;4.90;99.90;;;;;;5076967;28;20013;-74
2023/04/05 00:13:50;;;;;;;12.15;3.80;;;4.90;99.90;;;;;;5061489;28;20012;-74
2023/04/05 00:16:17;;;;;;;6.88;3.20;;;4.90;99.90;;;;;;5058786;28;20021;-76
2023/04/05 00:18:50;;;;;;;9.35;3.20;;;4.80;99.90;;;;;;5062323;28;20025;-75
2023/04/05 00:21:23;;;;;;;6.28;3.65;;;4.80;99.90;;;;;;5055216;28;20037;-75
2023/04/05 00:23:50;;;;;;;7.28;3.30;;;4.80;99.90;;;;;;5053732;28;20093;-75
2023/04/05 00:26:17;;;;;;;8.40;3.58;;;4.80;99.90;;;;;;5054130;28;20029;-74
2023/04/05 00:28:42;;;;;;;11.82;4.65;;;4.70;99.90;;;;;;5053731;28;20064;-75
2023/04/05 00:31:08;;;;;;;8.13;3.83;;;4.70;99.90;;;;;;5054458;28;20025;-75
2023/04/05 00:33:34;;;;;;;6.53;3.75;;;4.70;99.90;;;;;;5054564;28;20030;-73
2023/04/05 00:36:17;;;;;;;6.40;3.50;;;4.60;99.90;;;;;;5066127;28;20040;-75
2023/04/05 00:38:44;;;;;;;5.43;3.38;;;4.50;99.90;;;;;;5058478;28;20084;-73
2023/04/05 00:41:10;;;;;;;9.27;3.80;;;4.50;99.90;;;;;;5055768;28;20025;-73
2023/04/05 00:43:36;;;;;;;5.93;3.13;;;4.50;99.90;;;;;;5067229;28;20029;-74
2023/04/05 00:46:03;;;;;;;7.53;3.42;;;4.50;99.90;;;;;;5057711;28;20028;-72
2023/04/05 00:48:29;;;;;;;9.40;3.58;;;4.40;99.90;;;;;;5056366;28;20013;-73
2023/04/05 00:50:57;;;;;;;6.43;3.67;;;4.40;99.90;;;;;;5064241;28;20017;-73
2023/04/05 00:53:25;;;;;;;6.68;3.50;;;4.40;99.90;;;;;;5076055;28;20041;-72
2023/04/05 00:55:52;;;;;;;7.82;3.70;;;4.30;99.90;;;;;;5075618;28;20017;-74
2023/04/05 00:58:20;;;;;;;8.35;3.80;;;4.30;99.90;;;;;;5071264;28;19998;-74
2023/04/05 01:00:58;;;;;;;8.57;3.55;;;4.20;99.90;;;;;;5057004;28;20069;-74
2023/04/05 01:03:26;;;;;;;5.63;3.58;;;4.20;99.90;;;;;;5057093;28;20036;-73
2023/04/05 01:05:58;;;;;;;;;;;4.10;99.90;;;;;;5060378;28;20021;-74
2023/04/05 01:08:35;;;;;;;9.00;4.00;;;4.10;99.90;;;;;;5058708;28;19897;-73
2023/04/05 01:11:05;;;;;;;5.40;3.50;;;4.10;99.90;;;;;;5061234;28;20021;-73
2023/04/05 01:13:31;;;;;;;7.07;4.10;;;4.10;99.90;;;;;;5076599;28;19997;-73
2023/04/05 01:15:58;;;;;;;6.25;2.83;;;4.10;99.90;;;;;;5064367;28;20044;-74
2023/04/05 01:18:24;;;;;;;8.85;4.10;;;4.00;99.90;;;;;;5048797;28;20021;-74
2023/04/05 01:21:25;;;;;;;6.43;3.33;;;4.00;99.90;;;;;;5046032;28;20477;-74
2023/04/05 01:24:34;;;;;;;8.73;4.10;;;4.00;99.90;;;;;;5038416;28;20057;-75
2023/04/05 01:27:18;;;;;;;8.52;3.92;;;3.90;99.90;;;;;;5037572;28;20033;-73
2023/04/05 01:29:52;;;;;;;7.15;3.38;;;3.90;99.90;;;;;;5053592;28;20021;-75
2023/04/05 01:32:48;;;;;;;9.60;3.60;;;3.80;99.90;;;;;;5055065;28;20040;-75
2023/04/05 01:35:33;;;;;;;8.15;3.35;;;3.80;99.90;;;;;;5054582;28;20029;-75
2023/04/05 01:38:02;;;;;;;7.40;4.00;;;3.80;99.90;;;;;;5054927;28;20588;-75
2023/04/05 01:40:30;;;;;;;5.82;3.20;;;3.70;99.90;;;;;;5055549;28;20025;-74
2023/04/05 01:42:56;;;;;;;6.37;3.70;;;3.80;99.90;;;;;;5049478;28;20032;-75
2023/04/05 01:45:22;;;;;;;6.60;3.72;;;3.70;99.90;;;;;;5036145;28;20029;-74
2023/04/05 01:47:47;;;;;;;10.05;4.07;;;3.70;99.90;;;;;;5035668;28;20033;-74
2023/04/05 01:50:13;;;;;;;8.18;3.88;;;3.70;99.90;;;;;;5041296;28;20095;-74
2023/04/05 01:52:39;;;;;;;9.52;3.83;;;3.70;99.90;;;;;;5055284;28;20092;-74
2023/04/05 01:55:05;;;;;;;8.18;3.40;;;3.70;99.90;;;;;;5046776;28;20129;-74
2023/04/05 01:57:30;;;;;;;11.20;4.10;;;3.60;99.90;;;;;;5034624;28;20036;-74
2023/04/05 01:59:57;;;;;;;7.43;4.07;;;3.60;99.90;;;;;;5033885;28;20026;-75
2023/04/05 02:02:23;;;;;;;10.55;4.15;;;3.60;99.90;;;;;;5093893;28;20168;-74
2023/04/05 02:04:48;;;;;;;6.45;3.55;;;3.60;99.90;;;;;;5094907;28;20939;-73
2023/04/05 02:07:16;;;;;;;7.43;3.25;;;3.60;99.90;;;;;;5109589;28;20035;-74
2023/04/05 02:09:42;;;;;;;6.30;3.13;;;3.60;99.90;;;;;;5099685;28;20036;-74
2023/04/05 02:12:07;;;;;;;10.57;4.13;;;3.50;99.90;;;;;;5107195;28;20419;-73
2023/04/05 02:14:34;;;;;;;12.70;4.63;;;3.50;99.90;;;;;;5112643;28;20074;-73
2023/04/05 02:17:02;;;;;;;8.05;3.97;;;3.50;99.90;;;;;;5097059;28;20039;-74
2023/04/05 02:19:39;;;;;;;7.40;3.50;;;3.60;99.90;;;;;;5104061;28;20564;-74
2023/04/05 02:22:06;;;;;;;7.35;3.53;;;3.50;99.90;;;;;;5094708;28;20028;-74
2023/04/05 02:24:32;;;;;;;6.63;3.20;;;3.50;99.90;;;;;;5095754;28;20024;-74
2023/04/05 02:26:58;;;;;;;6.97;3.92;;;3.50;99.90;;;;;;5107581;28;20040;-74
2023/04/05 02:29:25;;;;;;;6.10;3.30;;;3.50;99.90;;;;;;5102597;28;20031;-74
2023/04/05 02:31:52;;;;;;;9.77;3.88;;;3.40;99.90;;;;;;5104045;28;20035;-74
2023/04/05 02:34:17;;;;;;;5.53;3.75;;;3.40;99.90;;;;;;5113263;28;20036;-75
2023/04/05 02:36:46;;;;;;;10.00;4.18;;;3.30;99.90;;;;;;5109285;28;20020;-74
2023/04/05 02:39:12;;;;;;;;;;;3.30;99.90;;;;;;5094138;28;20044;-74
2023/04/05 02:41:38;;;;;;;6.45;3.70;;;3.30;99.90;;;;;;5053439;28;19912;-73
2023/04/05 02:44:06;;;;;;;8.90;3.95;;;3.30;99.90;;;;;;5040001;28;20474;-75
2023/04/05 02:46:32;;;;;;;10.45;4.40;;;3.30;99.90;;;;;;5052407;28;20059;-73
2023/04/05 02:48:58;;;;;;;7.50;3.70;;;3.20;99.90;;;;;;5054269;28;20498;-74
2023/04/05 02:51:23;;;;;;;8.85;3.80;;;3.20;99.90;;;;;;5042878;28;20032;-74
2023/04/05 02:53:49;;;;;;;6.93;4.07;;;3.20;99.90;;;;;;5044156;28;20029;-74
2023/04/05 02:56:14;;;;;;;8.85;4.25;;;3.10;99.90;;;;;;5054395;28;20024;-75
2023/04/05 02:58:42;;;;;;;8.38;4.38;;;3.10;99.90;;;;;;5054190;28;20079;-74
2023/04/05 03:01:07;;;;;;;6.63;3.67;;;3.10;99.90;;;;;;5039096;28;20436;-75
2023/04/05 03:03:33;;;;;;;5.97;3.60;;;3.00;99.90;;;;;;5045361;28;20035;-74
2023/04/05 03:06:12;;;;;;;14.02;3.92;;;3.00;99.90;;;;;;5045861;28;20375;-74
2023/04/05 03:08:42;;;;;;;5.50;3.10;;;3.00;99.90;;;;;;5033905;28;20124;-74
2023/04/05 03:11:09;;;;;;;7.07;3.67;;;3.00;99.90;;;;;;5044238;28;20094;-74
2023/04/05 03:13:35;;;;;;;9.15;3.25;;;2.90;99.90;;;;;;5053823;28;20086;-73
2023/04/05 03:16:03;;;;;;;6.95;3.60;;;2.90;99.90;;;;;;5053491;28;20551;-74
2023/04/05 03:18:29;;;;;;;;;;;2.90;99.90;;;;;;5045720;28;20037;-74
2023/04/05 03:20:55;;;;;;;8.15;3.60;;;2.90;99.90;;;;;;5033910;28;19909;-75
2023/04/05 03:23:27;;;;;;;7.85;3.20;;;2.90;99.90;;;;;;5048719;28;20033;-75
2023/04/05 03:25:57;;;;;;;6.38;3.50;;;2.80;99.90;;;;;;5045723;28;20410;-75
2023/04/05 03:28:24;;;;;;;8.60;4.55;;;2.80;99.90;;;;;;5031738;28;20482;-74
2023/04/05 03:30:50;;;;;;;5.78;2.53;;;2.70;99.90;;;;;;5035458;28;20030;-74
2023/04/05 03:33:16;;;;;;;6.55;3.47;;;2.70;99.90;;;;;;5041267;28;20362;-74
2023/04/05 03:35:42;;;;;;;10.80;3.70;;;2.70;99.90;;;;;;5051181;28;20047;-73
2023/04/05 03:38:08;;;;;;;11.05;4.00;;;2.70;99.90;;;;;;5039774;28;20056;-74
2023/04/05 03:40:34;;;;;;;7.97;4.25;;;2.70;99.90;;;;;;5045974;28;20120;-73
2023/04/05 03:42:59;;;;;;;7.22;3.92;;;2.60;99.90;;;;;;5045051;28;20044;-74
2023/04/05 03:45:26;;;;;;;9.48;3.33;;;2.60;99.90;;;;;;5047837;28;20033;-73
2023/04/05 03:47:52;;;;;;;8.55;4.47;;;2.60;99.90;;;;;;5048318;28;20021;-73
2023/04/05 03:50:17;;;;;;;12.48;4.13;;;2.60;99.90;;;;;;5031459;28;20031;-74
2023/04/05 03:52:45;;;;;;;10.15;3.70;;;2.60;99.90;;;;;;5050030;28;20108;-75
2023/04/05 03:55:12;;;;;;;8.50;3.53;;;2.60;99.90;;;;;;5046977;28;20513;-74
2023/04/05 03:57:38;;;;;;;6.07;3.53;;;2.50;99.90;;;;;;5043493;28;20095;-74
2023/04/05 04:00:16;;;;;;;7.45;3.38;;;2.50;99.90;;;;;;5032714;28;20025;-75
2023/04/05 04:02:44;;;;;;;7.18;3.63;;;2.50;99.90;;;;;;5034277;28;20458;-73
2023/04/05 04:05:15;;;;;;;9.38;4.18;;;2.50;99.90;;;;;;5047077;28;20505;-75
2023/04/05 04:07:42;;;;;;;9.45;4.93;;;2.50;99.90;;;;;;5041486;28;20036;-74
2023/04/05 04:10:10;;;;;;;6.38;3.42;;;2.50;99.90;;;;;;5052111;28;20100;-74
2023/04/05 04:12:37;;;;;;;9.73;3.92;;;2.40;99.90;;;;;;5043774;28;20029;-74
2023/04/05 04:15:03;;;;;;;7.35;4.00;;;2.40;99.90;;;;;;5044822;28;20109;-74
2023/04/05 04:17:33;;;;;;;8.80;2.90;;;2.40;99.90;;;;;;5034929;28;20083;-74
2023/04/05 04:19:59;;;;;;;5.95;3.75;;;2.40;99.90;;;;;;5038881;28;20075;-74
2023/04/05 04:22:31;;;;;;;7.30;3.90;;;2.40;99.90;;;;;;5035854;28;20119;-74
2023/04/05 04:25:03;;;;;;;7.32;3.95;;;2.30;99.90;;;;;;5032876;28;20026;-74
2023/04/05 04:27:30;;;;;;;7.40;3.63;;;2.30;99.90;;;;;;5035539;28;20052;-74
2023/04/05 04:30:02;;;;;;;11.02;4.60;;;2.30;99.90;;;;;;5042877;28;20030;-74
2023/04/05 04:35:19;;;;;;;10.60;3.50;;;2.30;99.90;;;;;;5035364;28;20068;-74
2023/04/05 04:37:56;;;;;;;8.32;3.97;;;2.30;99.90;;;;;;5052893;28;20503;-73
2023/04/05 04:40:24;;;;;;;5.67;3.27;;;2.20;99.90;;;;;;5056044;28;20496;-74
2023/04/05 04:42:51;;;;;;;11.73;4.45;;;2.20;99.90;;;;;;5056793;28;20068;-73
2023/04/05 04:45:18;;;;;;;6.13;3.53;;;2.20;99.90;;;;;;5055957;28;20599;-74
2023/04/05 04:47:46;;;;;;;14.75;4.47;;;2.20;99.90;;;;;;5057053;28;20485;-73
2023/04/05 04:50:13;;;;;;;7.13;3.50;;;2.20;99.90;;;;;;5055213;28;20386;-74
2023/04/05 04:52:42;;;;;;;10.02;3.50;;;2.20;99.90;;;;;;5052380;28;20512;-75
2023/04/05 04:55:13;;;;;;;8.45;3.75;;;2.20;99.90;;;;;;5055113;28;20051;-75
2023/04/05 04:57:41;;;;;;;8.60;4.18;;;2.10;99.90;;;;;;5055524;28;20481;-74
2023/04/05 05:00:17;;;;;;;9.93;4.78;;;2.10;99.90;;;;;;5054771;28;20393;-74
2023/04/05 05:02:43;;;;;;;6.50;3.83;;;2.10;99.90;;;;;;5055605;28;20033;-74
2023/04/05 05:05:10;;;;;;;6.63;3.90;;;2.20;99.90;;;;;;5054140;28;20020;-75
2023/04/05 05:07:37;;;;;;;7.35;3.58;;;2.20;99.90;;;;;;5056137;28;20031;-74
2023/04/05 05:10:03;;;;;;;5.50;3.67;;;2.20;99.90;;;;;;5055523;28;20389;-74
2023/04/05 05:12:30;;;;;;;11.38;4.40;;;2.20;99.90;;;;;;5053108;28;20104;-73
2023/04/05 05:14:56;;;;;;;6.95;3.53;;;2.20;99.90;;;;;;5036702;28;20029;-74
2023/04/05 05:17:22;;;;;;;7.28;3.90;;;2.20;99.90;;;;;;5034975;28;20030;-74
2023/04/05 05:19:48;;;;;;;7.80;4.15;;;2.20;99.90;;;;;;5047293;28;20432;-73
2023/04/05 05:22:14;;;;;;;9.55;4.60;;;2.20;99.90;;;;;;5037628;28;20022;-74
2023/04/05 05:24:40;;;;;;;11.00;4.28;;;2.20;99.90;;;;;;5050998;28;20120;-74
2023/04/05 05:27:05;;;;;;;11.27;4.40;;;2.30;99.90;;;;;;5037337;28;20375;-74
2023/04/05 05:29:31;;;;;;;8.05;3.80;;;2.30;99.90;;;;;;5041522;28;20553;-74
2023/04/05 05:31:57;;;;;;;8.98;4.35;;;2.40;99.90;;;;;;5044464;28;20119;-74
2023/04/05 05:34:23;;;;;;;13.68;4.63;;;2.40;99.90;;;;;;5045036;28;20037;-74
2023/04/05 05:36:51;;;;;;;10.52;4.43;;;2.40;99.90;;;;;;5039698;28;20091;-75
2023/04/05 05:39:17;;;;;;;8.52;3.55;;;2.40;99.90;;;;;;5032030;28;20124;-74
2023/04/05 05:41:43;;;;;;;8.73;4.50;;;2.50;99.90;;;;;;5040564;28;20122;-74
2023/04/05 05:44:09;;;;;;;9.52;4.30;;;2.50;99.90;;;;;;5045230;28;20025;-74
2023/04/05 05:46:34;;;;;;;12.80;4.70;;;2.60;99.90;;;;;;5036256;28;20112;-74
2023/04/05 05:49:00;;;;;;;9.90;4.07;;;2.60;99.90;;;;;;5035389;28;20101;-73
2023/04/05 05:51:26;;;;;;;10.20;5.60;;;2.70;99.90;;;;;;5039794;28;20078;-74
2023/04/05 05:53:51;;;;;;;10.90;4.80;;;2.80;99.90;;;;;;5054597;28;20438;-74
2023/04/05 05:56:17;;;;;;;8.77;4.18;;;2.80;99.90;;;;;;5055441;28;20024;-75
2023/04/05 05:58:43;;;;;;;10.68;4.63;;;2.90;99.90;;;;;;5054634;28;20060;-74
2023/04/05 06:01:10;;;;;;;8.82;4.32;;;3.00;99.90;;;;;;5042519;28;20482;-74
2023/04/05 06:03:36;;;;;;;11.90;4.55;;;3.10;99.90;;;;;;5037092;28;20028;-75
2023/04/05 06:06:09;;;;;;;12.25;4.85;;;3.10;99.90;;;;;;5054139;28;20029;-75
2023/04/05 06:08:36;;;;;;;14.30;5.28;;;3.20;99.90;;;;;;5055195;28;20029;-74
2023/04/05 06:11:02;;;;;;;9.65;4.63;;;3.30;99.90;;;;;;5039357;28;20018;-74
2023/04/05 06:13:27;;;;;;;9.32;4.32;;;3.40;99.90;;;;;;5042001;28;20021;-74
2023/04/05 06:15:54;;;;;;;14.30;4.75;;;3.50;99.90;;;;;;5043213;28;20026;-74
2023/04/05 06:18:20;;;;;;;11.63;4.93;;;3.60;99.90;;;;;;5041112;28;20075;-75
2023/04/05 06:20:47;;;;;;;19.58;4.47;;;3.80;99.90;;;;;;5035602;28;20033;-74
2023/04/05 06:23:13;;;;;;;11.88;4.97;;;3.90;99.90;;;;;;5035497;28;20040;-75
2023/04/05 06:25:42;;;;;;;11.48;4.70;;;4.00;99.90;;;;;;5034752;28;20489;-75
2023/04/05 06:28:09;;;;;;;17.27;4.65;;;4.10;99.90;;;;;;5048441;28;20432;-74
2023/04/05 06:30:35;;;;;;;7.63;4.63;;;4.20;99.90;;;;;;5042928;28;20033;-73
2023/04/05 06:33:01;;;;;;;11.73;4.25;;;4.50;99.90;;;;;;5054538;28;20024;-73
2023/04/05 06:35:26;;;;;;;5.35;3.00;;;4.70;99.90;;;;;;5048498;28;20025;-73
2023/04/05 06:37:52;;;;;;;7.88;3.83;;;4.90;99.90;;;;;;5041266;28;20033;-73
2023/04/05 06:40:18;;;;;;;6.50;4.30;;;5.00;99.90;;;;;;5043826;28;20021;-73
2023/04/05 06:42:44;;;;;;;11.75;4.00;;;5.20;99.90;;;;;;5043765;28;20158;-74
2023/04/05 06:45:12;;;;;;;7.38;4.32;;;5.30;99.90;;;;;;5042841;28;20028;-75
2023/04/05 06:47:41;;;;;;;8.45;4.28;;;5.40;99.90;;;;;;5040835;28;20053;-75
2023/04/05 06:50:07;;;;;;;;;;;5.60;99.90;;;;;;5038241;28;20039;-74
2023/04/05 06:52:37;;;;;;;12.00;3.47;;;5.70;99.90;;;;;;5041854;28;19915;-74
2023/04/05 06:55:03;;;;;;;6.97;3.75;;;5.80;99.90;;;;;;5032732;28;20056;-74
2023/04/05 06:57:31;;;;;;;10.00;4.18;;;5.90;99.90;;;;;;5036960;28;20025;-74
2023/04/05 06:59:57;;;;;;;14.87;3.80;;;6.00;99.90;;;;;;5042985;28;20029;-74
2023/04/05 07:02:23;;;;;;;5.72;3.55;;;6.00;99.90;;;;;;5034370;28;20272;-74
2023/04/05 07:04:48;;;;;;;10.35;4.05;;;6.10;99.90;;;;;;5038281;28;20033;-76
2023/04/05 07:07:14;;;;;;;7.38;3.72;;;6.20;99.90;;;;;;5034039;28;20064;-74
2023/04/05 07:09:40;;;;;;;10.82;3.67;;;6.30;99.90;;;;;;5044685;28;20082;-75
2023/04/05 07:12:07;;;;;;;6.88;3.63;;;6.50;99.90;;;;;;5033812;28;20029;-74
2023/04/05 07:14:36;;;;;;;6.22;3.47;;;6.60;99.90;;;;;;5037265;28;20060;-74
2023/04/05 07:17:05;;;;;;;8.07;3.95;;;6.70;99.90;;;;;;5033598;28;20155;-74
2023/04/05 07:19:32;;;;;;;8.77;4.05;;;6.80;99.90;;;;;;5032658;28;20519;-75
2023/04/05 07:21:58;;;;;;;8.73;3.75;;;6.80;99.90;;;;;;5032304;28;20397;-75
2023/04/05 07:24:24;;;;;;;6.70;3.25;;;6.90;99.90;;;;;;5032612;28;20401;-74
2023/04/05 07:26:50;;;;;;;13.52;3.60;;;7.10;99.90;;;;;;5041378;28;20033;-74
2023/04/05 07:29:18;;;;;;;8.38;3.55;;;7.20;99.90;;;;;;5033410;28;20083;-75
2023/04/05 07:31:45;;;;;;;10.65;4.22;;;7.30;99.90;;;;;;5033699;28;20116;-75
2023/04/05 07:34:26;;;;;;;5.88;3.13;;;7.40;99.90;;;;;;5041105;28;20039;-74
2023/04/05 07:36:51;;;;;;;11.23;3.85;;;7.60;99.90;;;;;;5033752;28;20437;-74
2023/04/05 07:39:18;;;;;;;7.28;3.55;;;7.70;99.90;;;;;;5041196;28;20025;-74
2023/04/05 07:41:45;;;;;;;6.95;3.58;;;7.80;99.90;;;;;;5044530;28;20029;-74
2023/04/05 07:44:11;;;;;;;8.18;3.13;;;7.90;99.90;;;;;;5055944;28;20114;-74
2023/04/05 07:46:43;;;;;;;7.78;4.10;;;8.00;99.90;;;;;;5031677;28;20559;-75
2023/04/05 07:49:09;;;;;;;8.18;3.55;;;8.00;99.90;;;;;;5034489;28;20064;-73
2023/04/05 07:51:37;;;;;;;7.50;4.10;;;8.10;99.90;;;;;;5044592;28;20032;-73
2023/04/05 07:54:04;;;;;;;7.43;3.38;;;8.20;99.90;;;;;;5043971;28;20045;-75
2023/04/05 07:56:30;;;;;;;9.85;3.70;;;8.30;99.90;;;;;;5032188;28;20032;-75
2023/04/05 07:58:57;;;;;;;7.28;3.72;;;8.40;99.90;;;;;;5045646;28;20024;-79
2023/04/05 08:01:26;;;;;;;10.65;4.75;;;8.40;99.90;;;;;;5049846;28;20030;-76
2023/04/05 08:03:56;;;;;;;6.35;3.58;;;8.50;99.90;;;;;;5043079;28;20489;-77
2023/04/05 08:06:22;;;;;;;12.40;5.05;;;8.50;99.90;;;;;;5036820;28;20112;-76
2023/04/05 08:08:48;;;;;;;9.60;3.83;;;8.70;99.90;;;;;;5036340;28;20500;-77
2023/04/05 08:11:13;;;;;;;7.97;3.80;;;8.80;99.90;;;;;;5035786;28;20025;-76
2023/04/05 08:13:40;;;;;;;10.10;4.45;;;8.90;99.90;;;;;;5039985;28;20065;-77
2023/04/05 08:16:10;;;;;;;10.80;3.67;;;9.00;99.90;;;;;;5055473;28;20396;-77
2023/04/05 08:18:36;;;;;;;8.85;3.75;;;9.20;99.90;;;;;;5058195;28;20033;-77
2023/04/05 08:21:02;;;;;;;7.00;3.80;;;9.30;99.90;;;;;;5055910;28;20040;-77
2023/04/05 08:23:28;;;;;;;7.65;3.63;;;9.40;99.90;;;;;;5047593;28;20034;-77
2023/04/05 08:25:54;;;;;;;6.22;3.42;;;9.50;99.90;;;;;;5058879;28;20076;-76
2023/04/05 08:28:20;;;;;;;13.30;3.33;;;9.60;99.90;;;;;;5049645;28;20093;-78
2023/04/05 08:30:46;;;;;;;7.20;2.97;;;9.60;99.90;;;;;;5062007;28;20029;-76
2023/04/05 08:33:12;;;;;;;8.68;2.83;;;9.70;99.20;;;;;;5053363;28;20024;-76
2023/04/05 08:35:38;;;;;;;9.40;3.10;;;9.80;99.20;;;;;;5035146;28;20026;-76
2023/04/05 08:38:06;;;;;;;4.40;2.30;;;10.00;98.60;;;;;;5032801;28;20068;-77
2023/04/05 08:40:45;;;;;;;8.45;3.15;;;10.00;98.80;;;;;;5033454;28;20489;-76
2023/04/05 08:43:38;;;;;;;3.38;2.45;;;10.10;98.30;;;;;;5037920;28;20029;-77
2023/04/05 08:46:07;;;;;;;7.13;2.85;;;10.20;98.60;;;;;;5045054;28;20652;-77
2023/04/05 08:48:34;;;;;;;7.18;2.65;;;10.20;97.90;;;;;;5045152;28;20265;-77
2023/04/05 08:51:00;;;;;;;3.97;2.50;;;10.40;97.00;;;;;;5055852;28;20036;-76
2023/04/05 08:53:26;;;;;;;3.55;2.22;;;10.50;97.30;;;;;;5043607;28;20296;-77
2023/04/05 08:56:00;;;;;;;6.43;2.83;;;10.50;97.60;;;;;;5054976;28;20387;-77
2023/04/05 08:58:27;;;;;;;4.70;2.78;;;10.50;96.70;;;;;;5061804;28;20055;-77
2023/04/05 09:00:54;;;;;;;5.20;3.67;;;10.60;95.60;;;;;;5049002;28;20029;-76
2023/04/05 09:03:22;;;;;;;5.80;2.30;;;10.50;95.90;;;;;;5046680;28;20057;-76
2023/04/05 09:05:51;;;;;;;7.65;2.92;;;10.70;95.40;;;;;;5044772;28;20041;-76
2023/04/05 09:08:17;;;;;;;6.25;2.42;;;10.80;95.20;;;;;;5059287;28;20041;-77
2023/04/05 09:10:44;;;;;;;8.18;2.78;;;10.90;94.80;;;;;;5062532;28;20036;-76
2023/04/05 09:13:10;;;;;;;7.13;2.80;;;10.90;95.40;;;;;;5054546;28;20379;-76
2023/04/05 09:15:37;;;;;;;5.20;2.75;;;11.00;95.00;;;;;;5057304;28;20021;-77
2023/04/05 09:18:03;;;;;;;7.03;2.90;;;11.10;95.70;;;;;;5054125;28;20052;-77
2023/04/05 09:20:30;;;;;;;5.55;2.63;;;11.20;95.70;;;;;;5054035;28;20051;-76
2023/04/05 09:22:56;;;;;;;8.52;3.40;;;11.30;94.10;;;;;;5051901;28;20441;-76
2023/04/05 09:25:34;;;;;;;4.28;2.78;;;11.40;94.60;;;;;;5066462;28;20077;-77
2023/04/05 09:28:04;;;;;;;6.35;3.25;;;11.40;96.00;;;;;;5060539;28;20059;-78
2023/04/05 09:30:31;;;;;;;8.52;3.10;;;11.40;94.70;;;;;;5070595;28;20040;-78
2023/04/05 09:32:57;;;;;;;13.23;3.83;;;11.50;95.60;;;;;;5069223;28;20075;-77
2023/04/05 09:35:24;;;;;;;5.57;3.35;;;11.50;95.90;;;;;;5065688;28;20025;-76
2023/04/05 09:37:55;;;;;;;4.65;2.75;;;11.50;96.30;;;;;;5058691;28;20084;-78
2023/04/05 09:40:22;;;;;;;3.70;2.72;;;11.60;93.90;;;;;;5051553;28;20580;-77
2023/04/05 09:42:48;;;;;;;5.07;3.45;;;11.70;94.20;;;;;;5067268;28;20136;-76
2023/04/05 09:45:17;;;;;;;4.95;2.75;;;11.70;94.90;;;;;;5071366;28;20039;-77
2023/04/05 09:47:52;;;;;;;7.32;3.85;;;11.70;94.80;;;;;;5062478;28;20033;-77
2023/04/05 09:50:19;;;;;;;6.18;3.45;;;11.70;95.30;;;;;;5048912;28;20029;-75
2023/04/05 09:52:45;;;;;;;5.00;3.25;;;11.60;94.50;;;;;;5045383;28;20048;-75
2023/04/05 09:55:11;;;;;;;5.15;2.95;;;11.50;95.20;;;;;;5046814;28;20041;-76
2023/04/05 09:57:39;;;;;;;6.40;3.38;;;11.60;93.90;;;;;;5054823;28;20059;-76
2023/04/05 10:00:15;;;;;;;4.03;2.83;;;11.60;94.80;;;;;;5063988;28;20543;-77
2023/04/05 10:02:42;;;;;;;6.55;4.03;;;11.70;96.40;;;;;;5064150;28;20029;-77
2023/04/05 10:05:15;;;;;;;3.55;2.78;;;11.80;95.40;;;;;;5065215;28;20027;-78
2023/04/05 10:07:42;;;;;;;5.68;3.15;;;11.90;94.90;;;;;;5064461;28;20036;-77
2023/04/05 10:10:11;;;;;;;4.57;3.27;;;12.00;95.00;;;;;;5065759;28;20112;-77
2023/04/05 10:12:38;;;;;;;6.60;2.75;;;12.20;94.40;;;;;;5061322;28;20014;-78
2023/04/05 10:15:05;;;;;;;6.63;3.63;;;12.30;94.50;;;;;;5060505;28;20413;-77
2023/04/05 10:18:05;;;;;;;5.43;3.30;;;12.40;94.20;;;;;;5054397;28;20121;-77
2023/04/05 10:20:35;;;;;;;4.85;3.72;;;12.50;93.00;;;;;;5051506;28;20056;-77
2023/04/05 10:23:11;;;;;;;7.95;3.42;;;12.50;92.70;;;;;;5061234;28;20445;-78
2023/04/05 10:25:54;;;;;;;7.40;3.88;;;12.10;94.30;;;;;;5054870;28;20048;-78
2023/04/05 10:28:34;;;;;;;8.85;3.80;;;12.00;93.10;;;;;;5061872;28;20033;-76
2023/04/05 10:31:27;;;;;;;6.53;3.47;;;12.10;93.80;;;;;;5058198;28;20033;-77
2023/04/05 10:34:10;;;;;;;9.98;3.35;;;12.20;94.70;;;;;;5052663;28;20431;-76
2023/04/05 10:36:55;;;;;;;6.65;3.13;;;12.30;94.50;;;;;;5035102;28;20045;-77
2023/04/05 10:39:41;;;;;;;6.30;3.20;;;12.50;93.30;;;;;;5054817;28;20051;-77
2023/04/05 10:42:26;;;;;;;5.90;3.30;;;12.60;93.40;;;;;;5054854;28;20098;-76
2023/04/05 10:45:01;;;;;;;7.47;3.67;;;12.90;92.70;;;;;;5046145;28;20037;-75
2023/04/05 10:47:28;;;;;;;5.10;3.22;;;12.90;92.90;;;;;;5035564;28;20037;-76
2023/04/05 10:49:59;;;;;;;10.38;3.95;;;12.90;92.70;;;;;;5034756;28;20037;-75
2023/04/05 10:52:28;;;;;;;7.40;3.83;;;12.90;92.60;;;;;;5033354;28;20076;-77
2023/04/05 10:54:57;;;;;;;5.90;3.53;;;13.00;93.20;;;;;;5034314;28;20037;-76
2023/04/05 10:57:24;;;;;;;7.90;3.53;;;13.20;94.30;;;;;;5033510;28;20021;-77
2023/04/05 10:59:51;;;;;;;5.88;3.72;;;13.20;93.20;;;;;;5034934;28;20116;-77
2023/04/05 11:02:18;;;;;;;5.10;3.28;;;13.20;93.00;;;;;;5034566;28;20029;-76
2023/04/05 11:04:43;;;;;;;9.35;3.97;;;13.00;92.90;;;;;;5034222;28;20033;-77
2023/04/05 11:07:16;;;;;;;5.07;3.70;;;12.90;92.20;;;;;;5034199;28;20031;-77
2023/04/05 11:10:02;;;;;;;5.25;3.40;;;13.00;93.30;;;;;;5032513;28;20041;-77
2023/04/05 11:12:49;;;;;;;4.60;3.30;;;13.20;91.30;;;;;;5034236;28;20029;-77
2023/04/05 11:15:33;;;;;;;8.95;3.75;;;13.20;92.70;;;;;;5033279;28;20031;-76
2023/04/05 11:18:03;;;;;;;5.72;3.58;;;13.30;92.10;;;;;;5037522;28;20033;-76
2023/04/05 11:20:46;;;;;;;7.28;3.20;;;13.50;93.40;;;;;;5051486;28;20086;-77
2023/04/05 11:23:17;;;;;;;6.93;3.22;;;13.60;92.30;;;;;;5046905;28;20021;-77
2023/04/05 11:26:06;;;;;;;7.32;3.70;;;13.70;93.00;;;;;;5033227;28;20029;-77
2023/04/05 11:28:39;;;;;;;6.40;3.38;;;13.80;93.80;;;;;;5030531;28;20045;-77
2023/04/05 11:31:18;;;;;;;7.50;3.90;;;13.40;91.80;;;;;;5039324;28;20036;-78
2023/04/05 11:33:44;;;;;;;6.80;3.60;;;13.40;93.30;;;;;;5047029;28;20382;-77
2023/04/05 11:36:11;;;;;;;7.32;3.65;;;13.50;92.80;;;;;;5044162;28;20031;-78
2023/04/05 11:38:39;;;;;;;8.13;4.40;;;13.60;92.80;;;;;;5053648;28;20424;-77
2023/04/05 11:41:12;;;;;;;;;;;13.60;91.70;;;;;;5051677;28;20286;-77
2023/04/05 11:43:38;;;;;;;10.13;3.53;;;13.60;91.30;;;;;;5034589;28;19945;-77
2023/04/05 11:46:04;;;;;;;5.57;3.70;;;13.70;92.00;;;;;;5051066;28;20083;-76
2023/04/05 11:48:30;;;;;;;7.00;4.25;;;13.70;92.70;;;;;;5041117;28;20033;-76
2023/04/05 11:50:56;;;;;;;8.93;3.67;;;13.80;93.40;;;;;;5032669;28;20038;-75
2023/04/05 11:53:22;;;;;;;6.97;3.75;;;14.00;93.90;;;;;;5031150;28;20540;-76
2023/04/05 11:55:51;;;;;;;6.38;4.30;;;14.10;92.00;;;;;;5031162;28;20080;-75
2023/04/05 11:58:20;;;;;;;5.90;3.83;;;14.00;92.80;;;;;;5014936;28;20039;-76
2023/04/05 12:01:02;;;;;;;6.45;3.97;;;14.10;91.50;;;;;;5033112;28;20045;-76
2023/04/05 12:03:28;;;;;;;10.82;4.60;;;14.20;92.90;;;;;;5048346;28;20072;-75
2023/04/05 12:05:56;;;;;;;7.28;3.80;;;14.10;92.70;;;;;;5050809;28;20048;-75
2023/04/05 12:08:22;;;;;;;6.50;3.78;;;14.00;92.70;;;;;;5016201;28;20045;-76
2023/04/05 12:10:55;;;;;;;8.73;4.30;;;14.10;93.40;;;;;;5014473;28;20041;-76
2023/04/05 12:13:28;;;;;;;5.90;3.92;;;14.20;92.70;;;;;;5033645;28;20116;-75
2023/04/05 12:15:58;;;;;;;5.63;3.67;;;14.10;93.20;;;;;;5043769;28;20079;-76
2023/04/05 12:18:28;;;;;;;5.13;3.78;;;13.90;92.40;;;;;;5052014;28;20041;-76
2023/04/05 12:20:54;;;;;;;7.13;3.83;;;13.90;91.90;;;;;;5053347;28;20500;-76
2023/04/05 12:23:22;;;;;;;7.60;4.07;;;13.90;91.40;;;;;;5049011;28;20032;-76
2023/04/05 12:25:49;;;;;;;8.70;4.35;;;14.10;91.90;;;;;;5048109;28;20182;-75
2023/04/05 12:28:15;;;;;;;7.18;3.78;;;14.10;92.20;;;;;;5049615;28;20037;-76
2023/04/05 12:31:37;;;;;;;10.57;3.95;;;14.20;92.40;;;;;;5033258;28;20032;-76
2023/04/05 12:34:03;;;;;;;10.23;4.40;;;14.50;91.40;;;;;;4994672;28;20026;-76
2023/04/05 12:36:30;;;;;;;8.93;3.97;;;14.60;90.90;;;;;;5021902;28;20559;-76
2023/04/05 12:38:56;;;;;;;7.68;3.72;;;14.70;92.40;;;;;;5029382;28;20041;-75
2023/04/05 12:41:30;;;;;;;7.88;3.70;;;14.70;91.30;;;;;;5033982;28;20037;-76
2023/04/05 12:44:00;;;;;;;4.53;3.15;;;14.90;90.90;;;;;;5033268;28;20029;-76
2023/04/05 12:46:42;;;;;;;7.30;3.90;;;14.90;92.00;;;;;;5049602;28;20141;-75
2023/04/05 12:49:14;;;;;;;7.05;3.70;;;14.80;90.70;;;;;;5052530;28;20548;-75
2023/04/05 12:51:45;;;;;;;8.23;3.75;;;14.80;90.10;;;;;;5052694;28;20036;-77
2023/04/05 12:54:12;;;;;;;5.10;3.42;;;14.70;91.30;;;;;;5052339;28;20037;-76
2023/04/05 12:56:39;;;;;;;4.38;3.33;;;14.70;90.40;;;;;;5048769;28;20036;-76
2023/04/05 12:59:08;;;;;;;9.45;3.90;;;14.80;89.00;;;;;;5047232;28;20029;-76
2023/04/05 13:01:34;;;;;;;8.52;3.33;;;14.70;90.10;;;;;;5036872;28;20075;-75
2023/04/05 13:04:00;;;;;;;7.15;4.53;;;14.70;90.90;;;;;;5036449;28;20433;-75
2023/04/05 13:06:27;;;;;;;8.82;3.95;;;14.80;89.00;;;;;;5036503;28;20049;-75